Aérodrome :
LOGIN :

S'inscrire | Disclaimer

   EN    FR    IT 

 










Légende :    VFR   VFR Marginal   IFR   IFR Intensif   IFR Très Intensif
Visi : 
Plafond : 
>= 8 km
>= 3000ft
5 à 8 km
1000 à 3000 ft
1500m à 5 km
500 à 1000 ft
800 à 1500m
200 à 500 ft
< 800m
< 200 ft
Symboles :   Orages  Brouillard  Fortes neiges  Fortes précipitations  Vent > 20 kt
SIGMETs :   Divers  Orages  Givrage  Turbulence  Onde Orograph.  Cendres Volcan.






- Altitude de l'aérodrome : 158 ft
- Code IATA : QAR


EHDL - Deelen Airbase

DERNIER METAR :
  • 280755Z AUTO 10003KT 020V140 4700 BR OVC002 02/02 Q1020 AMB RMK TS INFO NOT AVBL

METARs EXPIRÉS :
  • 280725Z AUTO 09004KT 070V190 4200 BR FEW002 OVC092 02/02 Q1020 GRN RMK TS INFO NOT AVBL
  • 280655Z AUTO 11005KT 040V200 3400 BR BKN001 BKN002 OVC091 02/02 Q1020 RED RMK TS INFO NOT AVBL
  • 280625Z AUTO VRB03KT 2700 BR BKN001 BKN003 OVC091 02/01 Q1019 RED RMK TS INFO NOT AVBL
  • 280555Z AUTO VRB04KT 2600 BR SCT001 OVC092 02/02 Q1019 RED RMK TS INFO NOT AVBL
  • 280525Z AUTO 08004KT 020V130 0900 FG OVC001 02/02 Q1019 RED

Prévision TAF périmée.



MET'MAP, la Météo Aéronautique d'un coup d'oeil ! - Copyright ORBIFLY Décembre 2007 - Disclaimer

ORBIFLY MET'MAP TEAM :

Programmation & Développement : Alexandra Zaïnal
Sur une idée originale de : Baudouin d'Aumeries
Assistance à la programmation : Marc-Olivier Méhu
Soutien technique & logistique : Manuel Goepfert

Contact : metmap@orbifly.com




SOURCES & CREDITS :

   NOAA